createdAt,value
2022-08-20T00:02:13.421Z,4.43
2022-08-20T00:04:41.653Z,3.80
2022-08-20T00:07:09.543Z,5.10
2022-08-20T00:09:38.814Z,4.83
2022-08-20T00:12:07.620Z,5.13
2022-08-20T00:14:36.297Z,4.27
2022-08-20T00:17:04.947Z,5.00
2022-08-20T00:19:33.073Z,4.70
2022-08-20T00:22:00.959Z,5.40
2022-08-20T00:24:28.834Z,5.50
2022-08-20T00:26:58.055Z,5.03
2022-08-20T00:29:26.099Z,5.53
2022-08-20T00:31:54.003Z,4.80
2022-08-20T00:34:21.897Z,5.03
2022-08-20T00:36:49.929Z,4.77
2022-08-20T00:39:17.890Z,5.33
2022-08-20T00:41:45.938Z,5.00
2022-08-20T00:44:18.679Z,4.37
2022-08-20T00:46:47.719Z,5.10
2022-08-20T00:49:22.115Z,5.50
2022-08-20T00:51:53.558Z,4.97
2022-08-20T00:54:25.923Z,4.90
2022-08-20T00:57:06.583Z,5.17
2022-08-20T00:59:39.975Z,5.47
2022-08-20T01:02:10.386Z,4.90
2022-08-20T01:04:38.893Z,4.67
2022-08-20T01:07:07.916Z,4.73
2022-08-20T01:09:57.574Z,5.07
2022-08-20T01:12:26.124Z,4.20
2022-08-20T01:14:56.533Z,4.50
2022-08-20T01:17:26.880Z,5.30
2022-08-20T01:19:59.239Z,4.87
2022-08-20T01:22:53.998Z,4.30
2022-08-20T01:25:28.105Z,4.70
2022-08-20T01:27:58.033Z,4.60
2022-08-20T01:30:29.607Z,5.43
2022-08-20T01:32:57.629Z,5.10
2022-08-20T01:35:25.925Z,4.97
2022-08-20T01:37:54.298Z,5.90
2022-08-20T01:40:34.429Z,5.30
2022-08-20T01:43:07.741Z,5.00
2022-08-20T01:45:40.009Z,4.27
2022-08-20T01:48:09.677Z,5.30
2022-08-20T01:50:42.822Z,5.40
2022-08-20T01:53:21.851Z,4.80
2022-08-20T01:55:49.751Z,4.50
2022-08-20T01:58:19.121Z,5.03
2022-08-20T02:00:47.474Z,5.10
2022-08-20T02:03:15.389Z,4.63
2022-08-20T02:05:43.330Z,4.87
2022-08-20T02:08:11.256Z,5.30
2022-08-20T02:10:39.243Z,4.70
2022-08-20T02:13:10.153Z,4.47
2022-08-20T02:15:42.870Z,4.77
2022-08-20T02:18:14.262Z,4.57
2022-08-20T02:20:43.389Z,4.87
2022-08-20T02:23:13.022Z,5.67
2022-08-20T02:25:43.128Z,5.00
2022-08-20T02:28:14.051Z,4.67
2022-08-20T02:30:46.346Z,5.40
2022-08-20T02:33:17.286Z,5.40
2022-08-20T02:35:48.592Z,4.87
2022-08-20T02:38:17.455Z,4.83
2022-08-20T02:40:49.057Z,5.10
2022-08-20T02:43:18.325Z,4.63
2022-08-20T02:45:47.673Z,5.10
2022-08-20T02:48:23.072Z,5.50
2022-08-20T02:50:54.374Z,5.43
2022-08-20T02:53:23.090Z,5.40
2022-08-20T02:55:51.498Z,5.20
2022-08-20T02:58:20.524Z,5.63
2022-08-20T03:00:51.081Z,5.50
2022-08-20T03:03:22.505Z,5.80
2022-08-20T03:05:52.976Z,5.20
2022-08-20T03:08:21.725Z,5.40
2022-08-20T03:10:51.210Z,5.13
2022-08-20T03:13:20.568Z,5.37
2022-08-20T03:15:58.462Z,5.03
2022-08-20T03:18:31.184Z,5.40
2022-08-20T03:20:59.126Z,6.33
2022-08-20T03:23:27.807Z,5.40
2022-08-20T03:25:56.035Z,5.80
2022-08-20T03:28:24.349Z,6.20
2022-08-20T03:30:54.710Z,5.73
2022-08-20T03:33:23.550Z,6.30
2022-08-20T03:35:51.476Z,6.00
2022-08-20T03:38:32.813Z,5.80
2022-08-20T03:41:02.042Z,6.43
2022-08-20T03:43:30.021Z,7.10
2022-08-20T03:45:59.492Z,6.73
2022-08-20T03:48:28.028Z,6.90
2022-08-20T03:50:57.571Z,6.60
2022-08-20T03:53:25.460Z,7.90
2022-08-20T03:55:59.263Z,8.40
2022-08-20T03:58:35.260Z,8.10
2022-08-20T04:01:07.206Z,6.47
2022-08-20T04:03:35.513Z,6.73
2022-08-20T04:06:03.697Z,7.83
2022-08-20T04:08:31.636Z,7.70
2022-08-20T04:11:00.583Z,7.20
2022-08-20T04:13:30.589Z,8.53
2022-08-20T04:15:58.933Z,7.77
2022-08-20T04:18:28.282Z,6.43
2022-08-20T04:20:56.280Z,7.70
2022-08-20T04:23:24.418Z,7.07
2022-08-20T04:25:52.368Z,7.17
2022-08-20T04:28:27.205Z,6.70
2022-08-20T04:30:56.014Z,7.50
2022-08-20T04:33:33.454Z,8.13
2022-08-20T04:36:05.948Z,8.00
2022-08-20T04:38:47.872Z,9.03
2022-08-20T04:41:22.445Z,8.27
2022-08-20T04:43:53.536Z,7.90
2022-08-20T04:46:23.518Z,8.10
2022-08-20T04:48:51.571Z,7.80
2022-08-20T04:51:22.979Z,6.93
2022-08-20T04:53:52.217Z,7.33
2022-08-20T04:56:23.945Z,6.80
2022-08-20T04:58:52.684Z,8.00
2022-08-20T05:01:21.943Z,7.80
2022-08-20T05:03:50.332Z,7.60
2022-08-20T05:06:19.814Z,7.50
2022-08-20T05:08:47.808Z,8.60
2022-08-20T05:11:33.807Z,7.70
2022-08-20T05:14:05.189Z,7.77
2022-08-20T05:16:37.882Z,7.70
2022-08-20T05:19:06.999Z,7.17
2022-08-20T05:21:36.251Z,7.20
2022-08-20T05:24:04.639Z,10.00
2022-08-20T05:26:33.168Z,7.23
2022-08-20T05:29:04.422Z,8.20
2022-08-20T05:31:33.811Z,7.60
2022-08-20T05:34:02.444Z,7.50
2022-08-20T05:36:30.407Z,6.67
2022-08-20T05:38:59.698Z,7.70
2022-08-20T05:41:30.077Z,8.10
2022-08-20T05:44:01.480Z,7.60
2022-08-20T05:46:31.159Z,7.70
2022-08-20T05:49:00.158Z,8.97
2022-08-20T05:51:29.218Z,7.40
2022-08-20T05:53:59.549Z,7.60
2022-08-20T05:56:31.000Z,7.20
2022-08-20T05:59:02.269Z,8.10
2022-08-20T06:01:30.592Z,8.43
2022-08-20T06:04:16.298Z,7.93
2022-08-20T06:06:46.843Z,7.97
2022-08-20T06:09:16.516Z,8.10
2022-08-20T06:11:59.202Z,7.30
2022-08-20T06:14:27.554Z,8.23
2022-08-20T06:16:57.181Z,8.30
2022-08-20T06:19:26.336Z,8.80
2022-08-20T06:21:56.458Z,9.83
2022-08-20T06:24:24.891Z,9.30
2022-08-20T06:26:57.930Z,12.67
2022-08-20T06:29:26.432Z,14.13
2022-08-20T06:31:54.389Z,14.67
2022-08-20T06:34:22.394Z,12.77
2022-08-20T06:36:50.285Z,10.60
2022-08-20T06:39:18.232Z,11.63
2022-08-20T06:41:46.129Z,11.70
2022-08-20T06:44:16.017Z,12.80
2022-08-20T06:46:45.368Z,12.10
2022-08-20T06:49:14.063Z,13.73
2022-08-20T06:51:42.121Z,11.77
2022-08-20T06:54:10.035Z,12.60
2022-08-20T06:56:37.945Z,11.73
2022-08-20T06:59:05.844Z,12.97
2022-08-20T07:01:35.791Z,14.77
2022-08-20T07:04:05.586Z,10.60
2022-08-20T07:06:33.490Z,12.97
2022-08-20T07:09:01.459Z,12.60
2022-08-20T07:11:29.380Z,11.00
2022-08-20T07:13:58.706Z,12.77
2022-08-20T07:16:27.467Z,12.53
2022-08-20T07:18:56.818Z,11.60
2022-08-20T07:21:24.917Z,12.07
2022-08-20T07:23:53.241Z,12.53
2022-08-20T07:26:21.482Z,12.50
2022-08-20T07:28:49.473Z,14.50
2022-08-20T07:31:35.252Z,15.43
2022-08-20T07:34:04.943Z,12.90
2022-08-20T07:36:33.496Z,10.07
2022-08-20T07:39:06.224Z,11.80
2022-08-20T07:41:34.891Z,11.40
2022-08-20T07:44:03.444Z,11.30
2022-08-20T07:46:32.268Z,10.30
2022-08-20T07:49:00.500Z,11.40
2022-08-20T07:51:29.937Z,10.93
2022-08-20T07:54:00.060Z,12.57
2022-08-20T07:56:28.218Z,13.30
2022-08-20T07:58:59.284Z,11.10
2022-08-20T08:01:30.267Z,13.73
2022-08-20T08:03:59.304Z,9.23
2022-08-20T08:06:31.553Z,11.80
2022-08-20T08:09:05.682Z,12.00
2022-08-20T08:11:36.017Z,12.83
2022-08-20T08:14:06.621Z,13.00
2022-08-20T08:16:35.127Z,14.00
2022-08-20T08:19:07.110Z,12.70
2022-08-20T08:21:36.359Z,12.90
2022-08-20T08:24:04.771Z,13.43
2022-08-20T08:26:32.649Z,14.53
2022-08-20T08:29:00.506Z,14.10
2022-08-20T08:31:28.566Z,14.17
2022-08-20T08:33:56.557Z,15.50
2022-08-20T08:36:27.060Z,12.43
2022-08-20T08:38:56.625Z,13.37
2022-08-20T08:41:31.262Z,11.30
2022-08-20T08:44:05.998Z,13.40
2022-08-20T08:46:38.835Z,11.53
2022-08-20T08:49:07.131Z,12.50
2022-08-20T08:51:41.262Z,12.80
2022-08-20T08:54:16.478Z,11.07
2022-08-20T08:56:50.128Z,12.93
2022-08-20T08:59:20.414Z,14.03
2022-08-20T09:01:56.932Z,13.57
2022-08-20T09:04:30.336Z,10.00
2022-08-20T09:06:58.740Z,13.60
2022-08-20T09:09:30.641Z,12.97
2022-08-20T09:12:05.608Z,10.67
2022-08-20T09:14:33.602Z,12.50
2022-08-20T09:17:01.491Z,9.57
2022-08-20T09:19:29.618Z,10.40
2022-08-20T09:21:57.602Z,12.93
2022-08-20T09:24:27.133Z,11.67
2022-08-20T09:26:54.996Z,10.73
2022-08-20T09:29:22.839Z,11.40
2022-08-20T09:31:51.500Z,11.67
2022-08-20T09:34:20.482Z,9.80
2022-08-20T09:36:48.427Z,11.20
2022-08-20T09:39:16.327Z,10.90
2022-08-20T09:41:45.576Z,9.10
2022-08-20T09:44:13.441Z,10.10
2022-08-20T09:46:42.504Z,9.13
2022-08-20T09:49:10.538Z,10.17
2022-08-20T09:51:39.234Z,9.00
2022-08-20T09:54:07.515Z,8.27
2022-08-20T09:56:36.695Z,8.73
2022-08-20T09:59:06.474Z,7.53
2022-08-20T10:01:34.855Z,8.90
2022-08-20T10:04:02.846Z,7.50
2022-08-20T10:06:33.467Z,7.53
2022-08-20T10:09:05.336Z,8.23
2022-08-20T10:11:33.501Z,7.30
2022-08-20T10:14:01.460Z,7.30
2022-08-20T10:16:30.790Z,7.17
2022-08-20T10:18:59.074Z,7.03
2022-08-20T10:21:26.958Z,6.10
2022-08-20T10:23:54.867Z,6.00
2022-08-20T10:26:22.749Z,6.30
2022-08-20T10:28:53.342Z,5.20
2022-08-20T10:31:21.449Z,5.17
2022-08-20T10:33:50.658Z,5.67
2022-08-20T10:36:19.079Z,4.77
2022-08-20T10:38:48.990Z,4.07
2022-08-20T10:41:17.117Z,4.00
2022-08-20T10:43:45.031Z,3.50
2022-08-20T10:46:12.958Z,3.50
2022-08-20T10:48:41.352Z,3.63
2022-08-20T10:51:10.585Z,3.70
2022-08-20T10:53:39.633Z,3.30
2022-08-20T10:56:07.987Z,3.20
2022-08-20T10:58:39.412Z,2.87
2022-08-20T11:01:07.794Z,2.63
2022-08-20T11:03:36.231Z,3.13
2022-08-20T11:06:04.348Z,2.40
2022-08-20T11:08:36.208Z,2.67
2022-08-20T11:11:05.784Z,2.63
2022-08-20T11:13:33.775Z,2.30
2022-08-20T11:16:03.135Z,2.87
2022-08-20T11:18:31.688Z,2.33
2022-08-20T11:21:00.106Z,3.20
2022-08-20T11:23:28.184Z,3.27
2022-08-20T11:25:59.913Z,4.57
2022-08-20T11:28:30.910Z,7.43
2022-08-20T11:30:59.381Z,4.00
2022-08-20T11:33:27.284Z,4.80
2022-08-20T11:35:55.163Z,4.70
2022-08-20T11:38:23.057Z,4.43
2022-08-20T11:40:50.924Z,4.60
2022-08-20T11:43:20.147Z,5.87
2022-08-20T11:45:50.566Z,3.67
2022-08-20T11:48:19.213Z,3.73
2022-08-20T11:50:47.787Z,3.73
2022-08-20T11:53:15.759Z,5.13
2022-08-20T11:55:44.285Z,4.30
2022-08-20T11:58:12.566Z,3.77
2022-08-20T12:00:42.107Z,4.10
2022-08-20T12:03:11.834Z,3.40
2022-08-20T12:05:40.607Z,3.50
2022-08-20T12:08:09.391Z,3.47
2022-08-20T12:10:38.394Z,3.20
2022-08-20T12:13:07.068Z,2.63
2022-08-20T12:15:36.367Z,3.13
2022-08-20T12:18:09.363Z,2.83
2022-08-20T12:20:37.718Z,2.73
2022-08-20T12:23:06.245Z,3.07
2022-08-20T12:25:34.543Z,3.00
2022-08-20T12:28:02.851Z,2.70
2022-08-20T12:30:30.744Z,2.90
2022-08-20T12:32:58.910Z,2.93
2022-08-20T12:35:29.576Z,3.20
2022-08-20T12:37:59.786Z,3.40
2022-08-20T12:40:32.199Z,4.30
2022-08-20T12:43:01.831Z,4.83
2022-08-20T12:45:30.261Z,4.90
2022-08-20T12:48:03.188Z,3.40
2022-08-20T12:50:32.978Z,4.47
2022-08-20T12:53:01.146Z,3.57
2022-08-20T12:55:29.635Z,5.10
2022-08-20T12:58:00.244Z,4.00
2022-08-20T13:00:30.254Z,4.50
2022-08-20T13:03:01.954Z,4.40
2022-08-20T13:05:31.013Z,4.20
2022-08-20T13:08:00.332Z,4.10
2022-08-20T13:10:31.078Z,4.10
2022-08-20T13:12:59.613Z,4.70
2022-08-20T13:15:27.490Z,4.87
2022-08-20T13:17:58.110Z,4.00
2022-08-20T13:20:31.069Z,3.40
2022-08-20T13:23:04.431Z,4.50
2022-08-20T13:25:32.869Z,3.90
2022-08-20T13:28:04.825Z,4.53
2022-08-20T13:30:35.025Z,3.90
2022-08-20T13:33:03.662Z,4.37
2022-08-20T13:35:31.742Z,4.83
2022-08-20T13:37:59.757Z,4.03
2022-08-20T13:40:29.034Z,3.43
2022-08-20T13:42:56.974Z,3.77
2022-08-20T13:45:25.075Z,3.47
2022-08-20T13:47:55.312Z,3.47
2022-08-20T13:50:25.897Z,3.50
2022-08-20T13:52:53.903Z,3.10
2022-08-20T13:55:24.341Z,3.03
2022-08-20T13:57:54.788Z,3.07
2022-08-20T14:00:31.234Z,3.33
2022-08-20T14:03:00.202Z,2.93
2022-08-20T14:05:28.420Z,2.70
2022-08-20T14:07:56.664Z,2.83
2022-08-20T14:10:31.279Z,2.73
2022-08-20T14:13:01.093Z,2.30
2022-08-20T14:15:28.966Z,3.20
2022-08-20T14:17:58.456Z,3.20
2022-08-20T14:20:29.260Z,3.23
2022-08-20T14:23:01.292Z,3.70
2022-08-20T14:25:31.445Z,3.20
2022-08-20T14:28:10.578Z,3.13
2022-08-20T14:30:38.512Z,3.13
2022-08-20T14:33:06.403Z,3.33
2022-08-20T14:35:34.447Z,2.57
2022-08-20T14:38:05.537Z,2.80
2022-08-20T14:40:35.157Z,2.10
2022-08-20T14:43:04.716Z,3.40
2022-08-20T14:45:32.682Z,2.30
2022-08-20T14:48:00.711Z,2.03
2022-08-20T14:50:30.990Z,2.30
2022-08-20T14:52:59.405Z,1.37
2022-08-20T14:55:29.902Z,1.60
2022-08-20T14:57:57.898Z,1.60
2022-08-20T15:00:30.035Z,1.50
2022-08-20T15:02:58.271Z,1.40
2022-08-20T15:05:26.623Z,1.47
2022-08-20T15:07:54.985Z,1.37
2022-08-20T15:10:27.278Z,1.67
2022-08-20T15:12:55.412Z,1.20
2022-08-20T15:15:24.581Z,1.30
2022-08-20T15:17:56.007Z,1.03
2022-08-20T15:20:26.035Z,1.40
2022-08-20T15:22:54.307Z,2.10
2022-08-20T15:25:25.436Z,1.73
2022-08-20T15:27:58.347Z,2.17
2022-08-20T15:30:31.273Z,2.30
2022-08-20T15:33:00.887Z,2.53
2022-08-20T15:35:29.558Z,2.30
2022-08-20T15:37:59.195Z,2.53
2022-08-20T15:40:29.593Z,2.70
2022-08-20T15:42:57.854Z,2.77
2022-08-20T15:45:26.671Z,2.50
2022-08-20T15:48:00.288Z,3.00
2022-08-20T15:51:01.449Z,2.60
2022-08-20T15:53:34.296Z,2.40
2022-08-20T15:56:11.310Z,2.80
2022-08-20T15:58:48.136Z,3.17
2022-08-20T16:01:25.690Z,2.27
2022-08-20T16:04:21.448Z,2.43
2022-08-20T16:06:56.032Z,2.43
2022-08-20T16:09:39.154Z,2.23
2022-08-20T16:12:12.125Z,2.90
2022-08-20T16:14:43.053Z,2.93
2022-08-20T16:17:15.761Z,2.37
2022-08-20T16:19:51.962Z,2.43
2022-08-20T16:22:21.474Z,2.27
2022-08-20T16:24:50.566Z,2.40
2022-08-20T16:27:28.676Z,2.13
2022-08-20T16:30:02.990Z,2.33
2022-08-20T16:32:41.848Z,2.40
2022-08-20T16:35:30.088Z,2.57
2022-08-20T16:38:11.979Z,2.20
2022-08-20T16:40:49.440Z,2.33
2022-08-20T16:43:22.732Z,2.33
2022-08-20T16:45:54.702Z,1.77
2022-08-20T16:48:22.761Z,2.20
2022-08-20T16:50:59.450Z,2.40
2022-08-20T16:53:28.934Z,1.80
2022-08-20T16:55:57.591Z,2.10
2022-08-20T16:58:26.272Z,1.60
2022-08-20T17:01:09.940Z,1.77
2022-08-20T17:03:40.268Z,1.70
2022-08-20T17:06:18.472Z,1.93
2022-08-20T17:08:50.908Z,2.20
2022-08-20T17:11:26.038Z,2.00
2022-08-20T17:14:14.175Z,1.87
2022-08-20T17:16:47.678Z,2.00
2022-08-20T17:19:20.112Z,1.57
2022-08-20T17:21:50.396Z,1.87
2022-08-20T17:24:24.422Z,1.60
2022-08-20T17:26:58.879Z,1.73
2022-08-20T17:29:31.286Z,2.47
2022-08-20T17:32:01.364Z,1.80
2022-08-20T17:34:31.978Z,2.33
2022-08-20T17:37:03.831Z,1.83
2022-08-20T17:39:33.816Z,2.10
2022-08-20T17:42:08.000Z,2.10
2022-08-20T17:44:39.118Z,1.70
2022-08-20T17:47:12.775Z,1.87
2022-08-20T17:49:57.413Z,2.00
2022-08-20T17:52:35.181Z,1.83
2022-08-20T17:55:06.032Z,1.63
2022-08-20T17:57:38.773Z,2.20
2022-08-20T18:00:09.879Z,2.23
2022-08-20T18:02:37.946Z,1.37
2022-08-20T18:05:17.408Z,1.83
2022-08-20T18:08:08.530Z,1.40
2022-08-20T18:10:49.207Z,1.73
2022-08-20T18:13:20.825Z,1.90
2022-08-20T18:15:54.372Z,1.33
2022-08-20T18:18:30.254Z,1.60
2022-08-20T18:21:26.773Z,1.77
2022-08-20T18:24:00.572Z,2.10
2022-08-20T18:26:35.450Z,1.90
2022-08-20T18:29:12.016Z,2.70
2022-08-20T18:31:45.344Z,2.00
2022-08-20T18:34:15.605Z,2.40
2022-08-20T18:36:55.403Z,2.10
2022-08-20T18:39:28.280Z,2.03
2022-08-20T18:42:00.151Z,1.90
2022-08-20T18:44:31.015Z,2.07
2022-08-20T18:47:01.244Z,2.40
2022-08-20T18:49:30.912Z,2.10
2022-08-20T18:52:08.487Z,1.83
2022-08-20T18:54:36.912Z,2.20
2022-08-20T18:57:09.731Z,2.40
2022-08-20T18:59:45.170Z,1.93
2022-08-20T19:02:23.737Z,2.40
2022-08-20T19:04:59.784Z,2.47
2022-08-20T19:07:47.921Z,2.23
2022-08-20T19:10:45.489Z,2.17
2022-08-20T19:13:46.079Z,2.20
2022-08-20T19:16:19.553Z,2.00
2022-08-20T19:18:50.705Z,2.20
2022-08-20T19:21:24.401Z,2.23
2022-08-20T19:24:02.320Z,2.20
2022-08-20T19:26:33.895Z,1.70
2022-08-20T19:29:09.013Z,2.50
2022-08-20T19:31:37.528Z,1.70
2022-08-20T19:34:21.699Z,1.87
2022-08-20T19:36:56.574Z,2.07
2022-08-20T19:39:26.113Z,2.00
2022-08-20T19:41:59.190Z,2.10
2022-08-20T19:44:42.628Z,2.00
2022-08-20T19:47:20.108Z,2.03
2022-08-20T19:49:58.878Z,1.80
2022-08-20T19:52:39.242Z,1.90
2022-08-20T19:55:20.062Z,2.27
2022-08-20T19:57:56.824Z,2.73
2022-08-20T20:00:28.592Z,2.10
2022-08-20T20:02:56.963Z,1.97
2022-08-20T20:05:25.038Z,2.30
2022-08-20T20:07:59.318Z,3.00
2022-08-20T20:10:32.667Z,2.43
2022-08-20T20:13:08.644Z,2.30
2022-08-20T20:15:38.793Z,3.20
2022-08-20T20:18:07.837Z,2.00
2022-08-20T20:20:50.177Z,2.30
2022-08-20T20:23:27.893Z,2.00
2022-08-20T20:26:11.976Z,1.90
2022-08-20T20:28:52.739Z,2.07
2022-08-20T20:31:26.149Z,1.83
2022-08-20T20:33:59.178Z,2.03
2022-08-20T20:36:36.574Z,2.10
2022-08-20T20:39:10.190Z,1.87
2022-08-20T20:41:40.470Z,2.03
2022-08-20T20:44:20.411Z,1.87
2022-08-20T20:46:53.157Z,2.00
2022-08-20T20:49:24.684Z,1.90
2022-08-20T20:51:59.770Z,2.50
2022-08-20T20:54:40.402Z,1.50
2022-08-20T20:57:11.557Z,2.30
2022-08-20T20:59:39.458Z,2.10
2022-08-20T21:02:09.100Z,2.30
2022-08-20T21:04:40.703Z,2.37
2022-08-20T21:07:13.274Z,2.07
2022-08-20T21:09:42.690Z,2.10
2022-08-20T21:12:13.020Z,2.33
2022-08-20T21:14:41.227Z,1.83
2022-08-20T21:17:13.876Z,1.93
2022-08-20T21:19:45.112Z,2.10
2022-08-20T21:22:13.355Z,1.90
2022-08-20T21:24:41.307Z,1.87
2022-08-20T21:27:10.109Z,1.90
2022-08-20T21:29:41.356Z,2.87
2022-08-20T21:32:12.402Z,2.60
2022-08-20T21:34:40.949Z,2.17
2022-08-20T21:37:08.837Z,2.40
2022-08-20T21:39:37.041Z,2.13
2022-08-20T21:42:19.919Z,1.97
2022-08-20T21:44:58.149Z,2.10
2022-08-20T21:47:28.198Z,2.00
2022-08-20T21:49:56.225Z,2.03
2022-08-20T21:52:24.187Z,2.17
2022-08-20T21:54:53.169Z,1.83
2022-08-20T21:57:23.372Z,2.23
2022-08-20T21:59:51.737Z,2.10
2022-08-20T22:02:21.220Z,2.40
2022-08-20T22:04:50.542Z,1.83
2022-08-20T22:07:22.396Z,2.67
2022-08-20T22:09:50.322Z,2.07
2022-08-20T22:12:21.377Z,1.90
2022-08-20T22:14:49.480Z,2.20
2022-08-20T22:17:17.578Z,2.33
2022-08-20T22:19:45.505Z,2.00
2022-08-20T22:22:17.419Z,2.30
2022-08-20T22:24:46.578Z,1.93
2022-08-20T22:27:14.818Z,1.90
2022-08-20T22:29:42.761Z,2.20
2022-08-20T22:32:10.913Z,2.20
2022-08-20T22:34:38.973Z,2.10
2022-08-20T22:37:07.185Z,2.40
2022-08-20T22:39:36.454Z,2.47
2022-08-20T22:42:05.066Z,2.43
2022-08-20T22:44:33.293Z,2.13
2022-08-20T22:47:05.900Z,2.43
2022-08-20T22:49:35.825Z,2.20
2022-08-20T22:52:04.072Z,1.80
2022-08-20T22:54:32.161Z,1.90
2022-08-20T22:57:01.367Z,1.93
2022-08-20T22:59:29.579Z,2.30
2022-08-20T23:01:59.208Z,2.13
2022-08-20T23:04:29.462Z,2.00
2022-08-20T23:06:58.744Z,2.30
2022-08-20T23:09:28.300Z,1.90
2022-08-20T23:11:58.267Z,2.43
2022-08-20T23:14:27.620Z,2.50
2022-08-20T23:17:00.770Z,2.10
2022-08-20T23:19:28.717Z,2.53
2022-08-20T23:21:56.672Z,2.00
2022-08-20T23:24:24.776Z,2.50
2022-08-20T23:26:53.574Z,2.10
2022-08-20T23:29:25.323Z,2.30
2022-08-20T23:31:57.019Z,2.37
2022-08-20T23:34:25.727Z,2.30
2022-08-20T23:36:54.964Z,2.00
2022-08-20T23:39:23.673Z,2.47
2022-08-20T23:41:52.154Z,2.43
2022-08-20T23:44:25.793Z,2.43
2022-08-20T23:46:57.724Z,2.30
2022-08-20T23:49:26.282Z,2.73
2022-08-20T23:51:54.252Z,2.80
2022-08-20T23:54:22.326Z,2.87
2022-08-20T23:56:50.492Z,1.93
2022-08-20T23:59:18.668Z,2.20
